createdAt,value
2022-10-09T00:01:23.620Z,96060.80
2022-10-09T00:03:53.386Z,96062.20
2022-10-09T00:06:24.307Z,96067.00
2022-10-09T00:08:51.688Z,96066.20
2022-10-09T00:11:22.526Z,96070.00
2022-10-09T00:13:49.839Z,96070.00
2022-10-09T00:16:18.766Z,96068.40
2022-10-09T00:18:46.599Z,96066.00
2022-10-09T00:21:24.448Z,96059.80
2022-10-09T00:23:54.439Z,96058.80
2022-10-09T00:26:21.791Z,96055.40
2022-10-09T00:28:48.818Z,96052.60
2022-10-09T00:31:17.062Z,96050.60
2022-10-09T00:33:43.680Z,96047.60
2022-10-09T00:36:17.790Z,96052.40
2022-10-09T00:38:44.853Z,96051.80
2022-10-09T00:41:16.798Z,96048.20
2022-10-09T00:43:58.092Z,96044.20
2022-10-09T00:46:50.154Z,96042.60
2022-10-09T00:49:28.016Z,96041.40
2022-10-09T00:51:58.787Z,96033.20
2022-10-09T00:54:30.396Z,96035.80
2022-10-09T00:56:57.174Z,96034.60
2022-10-09T00:59:25.743Z,96033.20
2022-10-09T01:01:52.871Z,96028.40
2022-10-09T01:04:19.480Z,96023.80
2022-10-09T01:06:51.880Z,96017.40
2022-10-09T01:09:25.995Z,96016.00
2022-10-09T01:12:43.646Z,96014.80
2022-10-09T01:15:39.040Z,96012.20
2022-10-09T01:18:32.718Z,96013.80
2022-10-09T01:21:08.948Z,96014.20
2022-10-09T01:23:44.499Z,96006.00
2022-10-09T01:26:54.609Z,96003.20
2022-10-09T01:29:25.251Z,95999.00
2022-10-09T01:31:52.704Z,96006.60
2022-10-09T01:34:20.654Z,96010.00
2022-10-09T01:36:47.878Z,96004.60
2022-10-09T01:39:19.386Z,95997.00
2022-10-09T01:41:48.790Z,95993.60
2022-10-09T01:44:29.377Z,95997.40
2022-10-09T01:46:56.948Z,95997.80
2022-10-09T01:49:44.562Z,95998.40
2022-10-09T01:52:55.585Z,95990.80
2022-10-09T01:55:34.266Z,95989.20
2022-10-09T01:58:24.003Z,95985.00
2022-10-09T02:01:16.963Z,95984.80
2022-10-09T02:03:48.732Z,95980.60
2022-10-09T02:06:18.128Z,95976.60
2022-10-09T02:08:49.683Z,95971.20
2022-10-09T02:11:16.930Z,95970.00
2022-10-09T02:13:47.023Z,95967.80
2022-10-09T02:16:37.728Z,95962.20
2022-10-09T02:19:34.514Z,95959.40
2022-10-09T02:22:12.396Z,95953.60
2022-10-09T02:24:40.411Z,95948.60
2022-10-09T02:27:09.169Z,95952.60
2022-10-09T02:29:39.149Z,95948.40
2022-10-09T02:32:05.687Z,95947.40
2022-10-09T02:34:32.220Z,95946.20
2022-10-09T02:36:58.794Z,95946.40
2022-10-09T02:39:25.379Z,95941.40
2022-10-09T02:41:51.909Z,95945.60
2022-10-09T02:44:18.510Z,95948.80
2022-10-09T02:46:45.051Z,95948.00
2022-10-09T02:49:11.635Z,95945.40
2022-10-09T02:51:38.370Z,95938.80
2022-10-09T02:54:05.396Z,95948.60
2022-10-09T02:56:35.597Z,95947.20
2022-10-09T02:59:05.497Z,95949.40
2022-10-09T03:01:32.083Z,95947.00
2022-10-09T03:03:58.736Z,95942.40
2022-10-09T03:06:28.272Z,95940.00
2022-10-09T03:08:55.929Z,95933.00
2022-10-09T03:11:24.931Z,95929.40
2022-10-09T03:13:52.458Z,95929.80
2022-10-09T03:16:22.979Z,95928.80
2022-10-09T03:18:51.289Z,95927.60
2022-10-09T03:21:25.421Z,95928.20
2022-10-09T03:23:53.591Z,95926.80
2022-10-09T03:26:23.887Z,95919.00
2022-10-09T03:28:52.437Z,95921.80
2022-10-09T03:31:49.920Z,95924.20
2022-10-09T03:34:11.708Z,95917.80
2022-10-09T03:36:38.338Z,95920.40
2022-10-09T03:39:04.909Z,95922.00
2022-10-09T03:41:31.429Z,95919.60
2022-10-09T03:43:57.992Z,95918.20
2022-10-09T03:46:24.653Z,95920.00
2022-10-09T03:48:51.199Z,95920.20
2022-10-09T03:51:17.720Z,95915.60
2022-10-09T03:53:44.284Z,95915.00
2022-10-09T03:56:10.920Z,95913.40
2022-10-09T03:58:37.463Z,95920.40
2022-10-09T04:01:04.192Z,95918.60
2022-10-09T04:03:31.000Z,95922.80
2022-10-09T04:05:57.599Z,95920.40
2022-10-09T04:08:24.200Z,95919.60
2022-10-09T04:10:58.530Z,95917.60
2022-10-09T04:13:25.592Z,95913.20
2022-10-09T04:15:53.483Z,95916.60
2022-10-09T04:18:20.334Z,95912.80
2022-10-09T04:20:55.722Z,95912.20
2022-10-09T04:23:25.505Z,95908.60
2022-10-09T04:25:58.420Z,95908.60
2022-10-09T04:28:27.370Z,95910.40
2022-10-09T04:30:54.685Z,95909.20
2022-10-09T04:33:21.255Z,95915.40
2022-10-09T04:35:51.821Z,95916.00
2022-10-09T04:38:19.689Z,95910.80
2022-10-09T04:41:00.406Z,95912.00
2022-10-09T04:43:27.721Z,95912.40
2022-10-09T04:45:54.723Z,95915.20
2022-10-09T04:48:21.720Z,95917.80
2022-10-09T04:50:48.467Z,95917.20
2022-10-09T04:53:15.139Z,95913.80
2022-10-09T04:55:43.915Z,95910.40
2022-10-09T04:58:13.087Z,95908.00
2022-10-09T05:00:45.252Z,95909.20
2022-10-09T05:03:12.976Z,95906.20
2022-10-09T05:05:39.651Z,95909.00
2022-10-09T05:08:06.442Z,95901.60
2022-10-09T05:10:33.071Z,95902.00
2022-10-09T05:13:00.496Z,95901.20
2022-10-09T05:15:27.771Z,95893.20
2022-10-09T05:17:54.562Z,95892.80
2022-10-09T05:20:21.098Z,95893.20
2022-10-09T05:22:48.438Z,95895.60
2022-10-09T05:25:15.416Z,95896.00
2022-10-09T05:27:42.074Z,95893.40
2022-10-09T05:30:09.909Z,95894.20
2022-10-09T05:32:36.650Z,95893.80
2022-10-09T05:35:04.373Z,95891.00
2022-10-09T05:37:31.024Z,95886.40
2022-10-09T05:39:57.620Z,95891.40
2022-10-09T05:42:24.195Z,95889.80
2022-10-09T05:44:50.724Z,95893.20
2022-10-09T05:47:18.937Z,95894.60
2022-10-09T05:49:45.489Z,95893.40
2022-10-09T05:52:12.040Z,95893.00
2022-10-09T05:54:38.595Z,95888.00
2022-10-09T05:57:05.117Z,95889.40
2022-10-09T05:59:31.729Z,95889.80
2022-10-09T06:01:59.224Z,95887.60
2022-10-09T06:04:25.990Z,95887.20
2022-10-09T06:06:52.603Z,95891.20
2022-10-09T06:09:23.329Z,95890.40
2022-10-09T06:11:51.448Z,95896.20
2022-10-09T06:14:20.690Z,95896.00
2022-10-09T06:16:48.338Z,95889.40
2022-10-09T06:19:17.859Z,95888.00
2022-10-09T06:21:46.892Z,95882.80
2022-10-09T06:24:28.170Z,95884.40
2022-10-09T06:26:57.543Z,95884.00
2022-10-09T06:29:24.536Z,95885.80
2022-10-09T06:31:51.099Z,95887.20
2022-10-09T06:34:17.925Z,95892.40
2022-10-09T06:36:44.489Z,95895.60
2022-10-09T06:39:11.259Z,95896.20
2022-10-09T06:41:38.194Z,95902.40
2022-10-09T06:44:16.549Z,95905.20
2022-10-09T06:46:45.772Z,95906.60
2022-10-09T06:49:12.463Z,95902.40
2022-10-09T06:51:39.246Z,95907.40
2022-10-09T06:54:13.351Z,95901.80
2022-10-09T06:56:40.530Z,95900.60
2022-10-09T06:59:08.056Z,95898.80
2022-10-09T07:01:35.209Z,95904.80
2022-10-09T07:04:10.975Z,95901.20
2022-10-09T07:06:42.338Z,95902.60
2022-10-09T07:09:13.175Z,95898.00
2022-10-09T07:11:44.752Z,95897.80
2022-10-09T07:14:13.573Z,95899.80
2022-10-09T07:16:44.788Z,95903.40
2022-10-09T07:19:13.350Z,95910.80
2022-10-09T07:21:44.386Z,95908.20
2022-10-09T07:24:11.863Z,95907.80
2022-10-09T07:26:42.199Z,95910.00
2022-10-09T07:29:11.963Z,95911.40
2022-10-09T07:31:38.933Z,95906.40
2022-10-09T07:34:06.544Z,95909.60
2022-10-09T07:36:33.378Z,95912.20
2022-10-09T07:39:00.086Z,95907.60
2022-10-09T07:41:29.451Z,95906.40
2022-10-09T07:43:57.494Z,95899.80
2022-10-09T07:46:32.221Z,95901.60
2022-10-09T07:49:00.449Z,95901.20
2022-10-09T07:51:29.298Z,95904.80
2022-10-09T07:53:57.312Z,95903.40
2022-10-09T07:56:33.803Z,95907.00
2022-10-09T07:59:04.321Z,95905.00
2022-10-09T08:01:32.647Z,95908.40
2022-10-09T08:04:00.648Z,95909.80
2022-10-09T08:06:28.246Z,95902.80
2022-10-09T08:08:57.245Z,95905.60
2022-10-09T08:11:26.235Z,95906.60
2022-10-09T08:13:53.586Z,95912.20
2022-10-09T08:16:22.228Z,95904.20
2022-10-09T08:18:49.601Z,95897.80
2022-10-09T08:21:18.999Z,95892.00
2022-10-09T08:23:46.000Z,95890.20
2022-10-09T08:26:15.673Z,95891.20
2022-10-09T08:28:42.572Z,95888.40
2022-10-09T08:31:15.305Z,95891.00
2022-10-09T08:33:42.528Z,95887.20
2022-10-09T08:36:11.869Z,95887.20
2022-10-09T08:38:47.217Z,95883.00
2022-10-09T08:41:37.333Z,95882.80
2022-10-09T08:44:33.817Z,95882.80
2022-10-09T08:47:09.597Z,95877.00
2022-10-09T08:49:45.529Z,95883.80
2022-10-09T08:52:38.044Z,95882.40
2022-10-09T08:55:36.006Z,95878.00
2022-10-09T08:58:06.071Z,95875.60
2022-10-09T09:00:46.395Z,95869.60
2022-10-09T09:03:25.076Z,95861.60
2022-10-09T09:06:01.514Z,95862.20
2022-10-09T09:08:58.627Z,95859.20
2022-10-09T09:11:52.907Z,95854.80
2022-10-09T09:14:47.490Z,95847.80
2022-10-09T09:17:44.058Z,95841.60
2022-10-09T09:20:26.306Z,95843.60
2022-10-09T09:22:53.596Z,95841.20
2022-10-09T09:25:36.222Z,95849.00
2022-10-09T09:28:22.658Z,95840.40
2022-10-09T09:31:06.996Z,95842.20
2022-10-09T09:33:58.235Z,95836.00
2022-10-09T09:36:31.657Z,95833.00
2022-10-09T09:41:45.559Z,95831.40
2022-10-09T09:44:14.716Z,95832.40
2022-10-09T09:46:42.312Z,95834.80
2022-10-09T09:49:23.598Z,95834.40
2022-10-09T09:51:50.801Z,95830.80
2022-10-09T09:54:25.165Z,95824.80
2022-10-09T09:57:18.356Z,95826.40
2022-10-09T09:59:45.107Z,95823.40
2022-10-09T10:02:22.863Z,95818.40
2022-10-09T10:05:03.057Z,95815.60
2022-10-09T10:07:34.975Z,95815.20
2022-10-09T10:10:04.276Z,95816.80
2022-10-09T10:12:30.962Z,95818.00
2022-10-09T10:14:57.647Z,95814.20
2022-10-09T10:17:30.424Z,95811.40
2022-10-09T10:19:57.125Z,95811.80
2022-10-09T10:22:26.992Z,95813.40
2022-10-09T10:25:01.444Z,95804.20
2022-10-09T10:27:41.266Z,95802.40
2022-10-09T10:30:15.785Z,95795.00
2022-10-09T10:33:18.000Z,95799.80
2022-10-09T10:35:50.000Z,95797.00
2022-10-09T10:38:30.837Z,95791.60
2022-10-09T10:41:14.883Z,95788.80
2022-10-09T10:43:46.032Z,95786.20
2022-10-09T10:46:36.919Z,95787.60
2022-10-09T10:49:04.687Z,95782.60
2022-10-09T10:52:06.044Z,95784.40
2022-10-09T10:55:08.997Z,95781.00
2022-10-09T10:58:08.654Z,95785.40
2022-10-09T11:00:43.187Z,95782.80
2022-10-09T11:03:34.523Z,95778.20
2022-10-09T11:06:14.824Z,95771.60
2022-10-09T11:09:03.521Z,95775.60
2022-10-09T11:11:50.380Z,95778.20
2022-10-09T11:14:21.454Z,95775.80
2022-10-09T11:17:06.749Z,95771.60
2022-10-09T11:19:57.986Z,95772.60
2022-10-09T11:23:04.456Z,95768.60
2022-10-09T11:25:44.962Z,95768.60
2022-10-09T11:28:17.002Z,95766.00
2022-10-09T11:31:14.304Z,95763.80
2022-10-09T11:33:46.003Z,95759.60
2022-10-09T11:36:18.147Z,95757.20
2022-10-09T11:38:54.847Z,95754.40
2022-10-09T11:41:22.480Z,95755.00
2022-10-09T11:44:01.717Z,95752.00
2022-10-09T11:47:10.544Z,95748.80
2022-10-09T11:49:57.499Z,95744.40
2022-10-09T11:52:33.953Z,95739.20
2022-10-09T11:55:28.346Z,95733.80
2022-10-09T11:57:55.107Z,95727.20
2022-10-09T12:00:36.192Z,95729.20
2022-10-09T12:03:06.118Z,95720.40
2022-10-09T12:05:42.680Z,95720.40
2022-10-09T12:08:19.589Z,95720.20
2022-10-09T12:10:54.579Z,95724.20
2022-10-09T12:13:40.779Z,95724.80
2022-10-09T12:16:11.630Z,95718.20
2022-10-09T12:18:47.148Z,95717.20
2022-10-09T12:21:35.540Z,95708.20
2022-10-09T12:24:02.660Z,95710.60
2022-10-09T12:26:30.414Z,95703.40
2022-10-09T12:29:03.018Z,95693.80
2022-10-09T12:31:35.228Z,95697.00
2022-10-09T12:34:17.964Z,95693.00
2022-10-09T12:36:44.643Z,95687.00
2022-10-09T12:39:20.145Z,95688.00
2022-10-09T12:41:54.450Z,95686.20
2022-10-09T12:44:34.949Z,95682.20
2022-10-09T12:47:16.306Z,95681.00
2022-10-09T12:49:43.077Z,95681.00
2022-10-09T12:52:16.414Z,95676.20
2022-10-09T12:54:44.853Z,95667.60
2022-10-09T12:57:15.942Z,95664.00
2022-10-09T12:59:44.685Z,95661.40
2022-10-09T13:02:17.148Z,95659.20
2022-10-09T13:04:57.640Z,95659.20
2022-10-09T13:07:27.653Z,95651.00
2022-10-09T13:10:07.172Z,95649.00
2022-10-09T13:12:35.263Z,95644.80
2022-10-09T13:15:23.744Z,95641.80
2022-10-09T13:17:50.786Z,95640.00
2022-10-09T13:20:30.706Z,95637.60
2022-10-09T13:23:00.882Z,95633.80
2022-10-09T13:25:38.086Z,95636.00
2022-10-09T13:28:05.407Z,95635.20
2022-10-09T13:30:33.139Z,95630.40
2022-10-09T13:32:59.751Z,95631.40
2022-10-09T13:35:26.492Z,95637.00
2022-10-09T13:37:53.405Z,95639.20
2022-10-09T13:40:22.032Z,95641.40
2022-10-09T13:42:59.698Z,95640.20
2022-10-09T13:45:26.447Z,95635.80
2022-10-09T13:47:53.335Z,95638.20
2022-10-09T13:50:20.264Z,95638.20
2022-10-09T13:52:47.224Z,95638.60
2022-10-09T13:55:15.016Z,95635.60
2022-10-09T13:57:41.605Z,95632.00
2022-10-09T14:00:09.152Z,95631.80
2022-10-09T14:02:41.529Z,95623.80
2022-10-09T14:05:08.429Z,95628.20
2022-10-09T14:07:35.038Z,95624.40
2022-10-09T14:10:01.916Z,95618.80
2022-10-09T14:12:28.469Z,95619.80
2022-10-09T14:14:55.092Z,95612.40
2022-10-09T14:17:21.721Z,95612.40
2022-10-09T14:19:48.728Z,95607.80
2022-10-09T14:22:15.499Z,95605.60
2022-10-09T14:24:42.671Z,95605.20
2022-10-09T14:27:09.237Z,95604.80
2022-10-09T14:29:37.450Z,95600.20
2022-10-09T14:32:05.300Z,95596.20
2022-10-09T14:34:32.060Z,95595.60
2022-10-09T14:36:58.632Z,95586.60
2022-10-09T14:39:25.204Z,95588.40
2022-10-09T14:41:51.828Z,95586.60
2022-10-09T14:44:18.434Z,95575.40
2022-10-09T14:46:45.012Z,95577.20
2022-10-09T14:49:11.623Z,95570.80
2022-10-09T14:51:40.054Z,95568.60
2022-10-09T14:54:09.264Z,95564.60
2022-10-09T14:56:36.234Z,95566.40
2022-10-09T14:59:05.981Z,95562.80
2022-10-09T15:01:34.339Z,95569.80
2022-10-09T15:04:02.385Z,95575.20
2022-10-09T15:06:29.322Z,95582.00
2022-10-09T15:09:05.364Z,95571.40
2022-10-09T15:11:34.381Z,95566.80
2022-10-09T15:14:01.888Z,95557.40
2022-10-09T15:16:28.638Z,95557.00
2022-10-09T15:18:56.120Z,95562.00
2022-10-09T15:21:30.230Z,95564.80
2022-10-09T15:23:59.353Z,95561.40
2022-10-09T15:26:28.717Z,95561.40
2022-10-09T15:28:55.762Z,95558.40
2022-10-09T15:31:29.598Z,95559.00
2022-10-09T15:33:58.659Z,95559.20
2022-10-09T15:36:25.732Z,95563.20
2022-10-09T15:38:52.781Z,95557.00
2022-10-09T15:41:29.799Z,95545.20
2022-10-09T15:44:00.328Z,95546.60
2022-10-09T15:46:27.938Z,95544.80
2022-10-09T15:48:55.120Z,95543.80
2022-10-09T15:51:23.272Z,95538.60
2022-10-09T15:53:52.180Z,95535.00
2022-10-09T15:56:23.055Z,95536.40
2022-10-09T15:58:50.775Z,95537.20
2022-10-09T16:01:18.718Z,95540.80
2022-10-09T16:03:46.091Z,95538.40
2022-10-09T16:06:20.066Z,95537.60
2022-10-09T16:08:47.855Z,95539.60
2022-10-09T16:11:19.011Z,95530.40
2022-10-09T16:13:48.594Z,95524.40
2022-10-09T16:16:22.627Z,95528.00
2022-10-09T16:18:50.470Z,95525.80
2022-10-09T16:21:23.892Z,95524.20
2022-10-09T16:23:54.459Z,95523.00
2022-10-09T16:26:24.219Z,95515.20
2022-10-09T16:28:52.260Z,95519.00
2022-10-09T16:31:30.427Z,95513.40
2022-10-09T16:33:58.401Z,95509.00
2022-10-09T16:36:24.932Z,95507.00
2022-10-09T16:38:51.605Z,95495.60
2022-10-09T16:41:21.850Z,95497.40
2022-10-09T16:43:52.160Z,95498.20
2022-10-09T16:46:21.211Z,95500.60
2022-10-09T16:48:49.289Z,95501.40
2022-10-09T16:51:29.130Z,95505.00
2022-10-09T16:53:59.271Z,95507.20
2022-10-09T16:56:30.182Z,95508.80
2022-10-09T16:58:59.679Z,95501.60
2022-10-09T17:01:27.330Z,95505.40
2022-10-09T17:03:56.395Z,95512.00
2022-10-09T17:06:24.140Z,95507.00
2022-10-09T17:08:53.123Z,95502.60
2022-10-09T17:11:20.215Z,95503.80
2022-10-09T17:13:47.403Z,95499.80
2022-10-09T17:16:21.654Z,95497.00
2022-10-09T17:18:49.683Z,95506.40
2022-10-09T17:21:18.293Z,95503.60
2022-10-09T17:23:46.714Z,95502.20
2022-10-09T17:26:17.111Z,95512.20
2022-10-09T17:28:45.261Z,95516.40
2022-10-09T17:31:16.392Z,95511.00
2022-10-09T17:33:46.229Z,95502.20
2022-10-09T17:36:16.670Z,95496.00
2022-10-09T17:38:44.355Z,95498.60
2022-10-09T17:41:13.334Z,95503.60
2022-10-09T17:43:40.287Z,95502.20
2022-10-09T17:46:07.748Z,95503.80
2022-10-09T17:48:36.098Z,95496.40
2022-10-09T17:51:04.225Z,95495.00
2022-10-09T17:53:31.318Z,95496.80
2022-10-09T17:56:03.781Z,95498.00
2022-10-09T17:58:30.781Z,95497.00
2022-10-09T18:00:57.745Z,95498.00
2022-10-09T18:03:24.743Z,95502.20
2022-10-09T18:05:51.539Z,95501.40
2022-10-09T18:08:19.919Z,95498.60
2022-10-09T18:10:46.780Z,95504.60
2022-10-09T18:13:13.509Z,95501.00
2022-10-09T18:15:42.940Z,95498.20
2022-10-09T18:18:11.323Z,95494.80
2022-10-09T18:20:40.002Z,95489.80
2022-10-09T18:23:07.992Z,95489.40
2022-10-09T18:25:36.570Z,95490.60
2022-10-09T18:28:03.198Z,95483.00
2022-10-09T18:30:29.905Z,95479.40
2022-10-09T18:32:56.470Z,95480.80
2022-10-09T18:35:22.990Z,95477.20
2022-10-09T18:37:49.632Z,95475.00
2022-10-09T18:40:16.232Z,95471.00
2022-10-09T18:42:42.903Z,95471.40
2022-10-09T18:45:13.137Z,95468.40
2022-10-09T18:47:40.767Z,95465.80
2022-10-09T18:50:11.321Z,95463.00
2022-10-09T18:52:41.730Z,95459.00
2022-10-09T18:55:13.009Z,95458.20
2022-10-09T18:57:41.346Z,95453.40
2022-10-09T19:00:09.299Z,95451.80
2022-10-09T19:02:36.023Z,95450.80
2022-10-09T19:05:04.326Z,95453.40
2022-10-09T19:07:30.936Z,95454.00
2022-10-09T19:09:57.730Z,95452.40
2022-10-09T19:12:25.910Z,95450.20
2022-10-09T19:14:52.931Z,95448.40
2022-10-09T19:17:19.677Z,95446.80
2022-10-09T19:19:46.221Z,95442.20
2022-10-09T19:22:16.427Z,95440.60
2022-10-09T19:24:44.227Z,95441.00
2022-10-09T19:27:11.053Z,95441.80
2022-10-09T19:29:37.783Z,95444.20
2022-10-09T19:32:04.401Z,95439.00
2022-10-09T19:34:31.014Z,95440.80
2022-10-09T19:36:57.732Z,95435.20
2022-10-09T19:39:24.662Z,95434.60
2022-10-09T19:41:51.292Z,95435.20
2022-10-09T19:44:18.785Z,95434.60
2022-10-09T19:46:45.905Z,95431.00
2022-10-09T19:49:12.654Z,95430.20
2022-10-09T19:51:39.415Z,95425.40
2022-10-09T19:54:08.219Z,95426.40
2022-10-09T19:56:36.176Z,95429.00
2022-10-09T19:59:06.990Z,95429.20
2022-10-09T20:01:37.554Z,95425.80
2022-10-09T20:04:08.848Z,95422.00
2022-10-09T20:06:41.067Z,95421.40
2022-10-09T20:09:09.100Z,95421.40
2022-10-09T20:11:36.429Z,95423.20
2022-10-09T20:14:04.197Z,95418.00
2022-10-09T20:16:32.149Z,95422.00
2022-10-09T20:19:00.499Z,95421.80
2022-10-09T20:21:30.219Z,95418.00
2022-10-09T20:23:58.350Z,95424.20
2022-10-09T20:26:25.129Z,95423.40
2022-10-09T20:28:54.005Z,95423.20
2022-10-09T20:31:23.782Z,95420.80
2022-10-09T20:33:51.302Z,95415.40
2022-10-09T20:36:35.200Z,95419.00
2022-10-09T20:39:07.322Z,95419.60
2022-10-09T20:41:34.303Z,95417.60
2022-10-09T20:44:02.787Z,95419.80
2022-10-09T20:46:33.520Z,95413.40
2022-10-09T20:49:04.990Z,95415.40
2022-10-09T20:51:35.555Z,95413.60
2022-10-09T20:54:03.533Z,95412.40
2022-10-09T20:56:32.508Z,95409.20
2022-10-09T20:59:00.683Z,95413.60
2022-10-09T21:01:28.833Z,95412.80
2022-10-09T21:03:57.463Z,95412.20
2022-10-09T21:06:24.242Z,95413.40
2022-10-09T21:08:51.106Z,95414.60
2022-10-09T21:11:18.997Z,95410.20
2022-10-09T21:13:46.618Z,95410.20
2022-10-09T21:16:17.340Z,95408.80
2022-10-09T21:18:43.915Z,95406.40
2022-10-09T21:21:14.580Z,95410.80
2022-10-09T21:23:43.046Z,95413.60
2022-10-09T21:26:16.116Z,95415.20
2022-10-09T21:28:43.737Z,95404.80
2022-10-09T21:31:17.692Z,95409.40
2022-10-09T21:33:45.293Z,95407.20
2022-10-09T21:36:26.661Z,95409.40
2022-10-09T21:38:53.243Z,95410.00
2022-10-09T21:41:20.002Z,95408.80
2022-10-09T21:43:46.491Z,95411.40
2022-10-09T21:46:13.084Z,95412.40
2022-10-09T21:48:39.645Z,95413.60
2022-10-09T21:51:06.389Z,95413.60
2022-10-09T21:53:33.015Z,95410.60
2022-10-09T21:55:59.872Z,95406.00
2022-10-09T21:58:26.510Z,95405.00
2022-10-09T22:01:01.484Z,95407.60
2022-10-09T22:03:31.773Z,95405.40
2022-10-09T22:05:58.695Z,95401.00
2022-10-09T22:08:25.730Z,95404.40
2022-10-09T22:10:52.486Z,95403.40
2022-10-09T22:13:20.283Z,95404.20
2022-10-09T22:15:50.982Z,95410.00
2022-10-09T22:18:19.498Z,95407.60
2022-10-09T22:20:49.328Z,95406.60
2022-10-09T22:23:19.297Z,95403.40
2022-10-09T22:26:01.283Z,95404.00
2022-10-09T22:28:28.042Z,95404.00
2022-10-09T22:31:20.002Z,95400.60
2022-10-09T22:34:01.548Z,95404.60
2022-10-09T22:36:32.765Z,95409.40
2022-10-09T22:39:03.511Z,95401.80
2022-10-09T22:41:31.278Z,95403.80
2022-10-09T22:43:59.703Z,95395.60
2022-10-09T22:46:34.889Z,95400.40
2022-10-09T22:49:01.662Z,95397.00
2022-10-09T22:51:29.876Z,95401.00
2022-10-09T22:53:59.688Z,95402.20
2022-10-09T22:56:31.403Z,95404.20
2022-10-09T22:58:58.760Z,95404.80
2022-10-09T23:01:44.529Z,95404.40
2022-10-09T23:04:14.230Z,95403.00
2022-10-09T23:06:41.801Z,95405.80
2022-10-09T23:09:12.083Z,95409.20
2022-10-09T23:11:38.703Z,95408.60
2022-10-09T23:14:06.333Z,95408.80
2022-10-09T23:16:33.914Z,95409.60
2022-10-09T23:19:06.347Z,95407.60
2022-10-09T23:21:37.401Z,95407.40
2022-10-09T23:24:05.849Z,95412.00
2022-10-09T23:26:35.036Z,95408.20
2022-10-09T23:29:08.808Z,95413.20
2022-10-09T23:31:36.581Z,95412.20
2022-10-09T23:34:06.696Z,95414.20
2022-10-09T23:36:34.168Z,95409.40
2022-10-09T23:39:03.294Z,95409.80
2022-10-09T23:41:31.687Z,95413.00
2022-10-09T23:43:58.476Z,95410.40
2022-10-09T23:46:29.916Z,95410.00
2022-10-09T23:48:56.961Z,95409.00
2022-10-09T23:51:25.180Z,95416.40
2022-10-09T23:53:52.637Z,95410.80
2022-10-09T23:56:29.636Z,95410.80
2022-10-09T23:58:57.864Z,95407.80
